createdAt,value
2023-06-04T00:01:38.127Z,8.15
2023-06-04T00:05:01.199Z,8.19
2023-06-04T00:08:25.274Z,8.20
2023-06-04T00:11:48.597Z,8.14
2023-06-04T00:15:11.803Z,8.23
2023-06-04T00:18:34.555Z,8.27
2023-06-04T00:21:57.820Z,8.24
2023-06-04T00:25:22.144Z,8.28
2023-06-04T00:28:44.858Z,8.31
2023-06-04T00:32:08.468Z,8.33
2023-06-04T00:35:31.496Z,8.35
2023-06-04T00:38:54.654Z,8.34
2023-06-04T00:42:18.656Z,8.36
2023-06-04T00:45:41.225Z,8.36
2023-06-04T00:49:03.944Z,8.30
2023-06-04T00:52:27.313Z,8.40
2023-06-04T00:55:50.064Z,8.41
2023-06-04T00:59:14.869Z,8.37
2023-06-04T01:02:41.038Z,8.29
2023-06-04T01:06:16.043Z,8.28
2023-06-04T01:09:39.266Z,8.32
2023-06-04T01:13:02.164Z,8.34
2023-06-04T01:16:30.356Z,8.37
2023-06-04T01:20:19.517Z,8.38
2023-06-04T01:23:50.905Z,8.35
2023-06-04T01:27:17.311Z,8.34
2023-06-04T01:30:44.647Z,8.39
2023-06-04T01:34:11.009Z,8.41
2023-06-04T01:37:33.561Z,8.42
2023-06-04T01:40:58.978Z,8.41
2023-06-04T01:44:21.632Z,8.41
2023-06-04T01:47:44.452Z,8.34
2023-06-04T01:51:09.089Z,8.45
2023-06-04T01:54:34.398Z,8.42
2023-06-04T01:57:57.573Z,8.47
2023-06-04T02:01:21.266Z,8.56
2023-06-04T02:04:44.198Z,8.60
2023-06-04T02:08:10.633Z,8.65
2023-06-04T02:11:33.189Z,8.54
2023-06-04T02:14:56.150Z,8.69
2023-06-04T02:18:22.703Z,8.72
2023-06-04T02:21:45.443Z,8.78
2023-06-04T02:25:11.676Z,8.81
2023-06-04T02:28:34.325Z,8.81
2023-06-04T02:31:57.017Z,8.85
2023-06-04T02:35:20.663Z,8.80
2023-06-04T02:38:43.205Z,8.75
2023-06-04T02:42:08.107Z,8.89
2023-06-04T02:45:31.066Z,8.91
2023-06-04T02:48:54.442Z,8.92
2023-06-04T02:52:17.494Z,8.89
2023-06-04T02:55:40.555Z,8.91
2023-06-04T02:59:05.158Z,8.76
2023-06-04T03:02:28.335Z,8.97
2023-06-04T03:05:51.892Z,8.99
2023-06-04T03:09:15.367Z,9.05
2023-06-04T03:12:38.733Z,9.00
2023-06-04T03:16:04.232Z,9.03
2023-06-04T03:19:27.315Z,9.03
2023-06-04T03:22:49.959Z,9.03
2023-06-04T03:26:14.248Z,9.06
2023-06-04T03:29:37.618Z,9.03
2023-06-04T03:33:02.041Z,9.04
2023-06-04T03:36:33.077Z,9.06
2023-06-04T03:39:55.923Z,9.08
2023-06-04T03:43:18.782Z,9.10
2023-06-04T03:46:41.661Z,9.16
2023-06-04T03:50:06.529Z,9.18
2023-06-04T03:53:29.502Z,9.22
2023-06-04T03:56:52.165Z,9.22
2023-06-04T04:00:16.331Z,9.27
2023-06-04T04:03:39.797Z,9.27
2023-06-04T04:07:04.200Z,9.29
2023-06-04T04:10:27.468Z,9.33
2023-06-04T04:13:51.133Z,9.33
2023-06-04T04:17:14.634Z,9.35
2023-06-04T04:20:37.064Z,9.37
2023-06-04T04:24:01.453Z,9.41
2023-06-04T04:27:24.298Z,9.46
2023-06-04T04:30:47.079Z,9.52
2023-06-04T04:34:10.622Z,9.49
2023-06-04T04:37:33.583Z,9.51
2023-06-04T04:40:58.995Z,9.45
2023-06-04T04:44:22.881Z,9.54
2023-06-04T04:47:46.059Z,9.56
2023-06-04T04:51:09.128Z,9.58
2023-06-04T04:54:31.957Z,9.59
2023-06-04T04:57:56.350Z,9.64
2023-06-04T05:01:19.319Z,9.72
2023-06-04T05:04:42.133Z,9.74
2023-06-04T05:08:05.121Z,9.65
2023-06-04T05:11:27.872Z,9.73
2023-06-04T05:14:51.983Z,9.74
2023-06-04T05:18:15.024Z,9.73
2023-06-04T05:21:38.287Z,9.80
2023-06-04T05:25:01.972Z,9.82
2023-06-04T05:28:26.676Z,9.87
2023-06-04T05:31:51.302Z,9.91
2023-06-04T05:35:14.325Z,9.96
2023-06-04T05:38:37.278Z,9.96
2023-06-04T05:41:59.928Z,9.98
2023-06-04T05:45:22.788Z,10.00
2023-06-04T05:48:46.970Z,10.02
2023-06-04T05:52:09.936Z,10.06
2023-06-04T05:55:33.140Z,10.11
2023-06-04T05:58:56.256Z,10.22
2023-06-04T06:02:19.227Z,10.32
2023-06-04T06:05:43.708Z,10.38
2023-06-04T06:09:06.256Z,10.35
2023-06-04T06:12:29.321Z,10.40
2023-06-04T06:15:54.337Z,10.38
2023-06-04T06:19:18.722Z,10.56
2023-06-04T06:22:42.807Z,10.70
2023-06-04T06:26:09.554Z,10.82
2023-06-04T06:29:32.303Z,10.93
2023-06-04T06:32:56.623Z,11.06
2023-06-04T06:36:20.324Z,11.32
2023-06-04T06:39:44.362Z,11.45
2023-06-04T06:43:07.317Z,11.53
2023-06-04T06:46:30.326Z,11.65
2023-06-04T06:49:53.349Z,11.65
2023-06-04T06:53:16.299Z,11.60
2023-06-04T06:56:40.791Z,11.68
2023-06-04T07:00:04.140Z,11.83
2023-06-04T07:03:26.915Z,11.92
2023-06-04T07:06:49.665Z,11.97
2023-06-04T07:10:13.337Z,11.98
2023-06-04T07:13:37.324Z,11.85
2023-06-04T07:17:00.234Z,11.79
2023-06-04T07:20:22.933Z,11.74
2023-06-04T07:23:47.029Z,11.72
2023-06-04T07:27:14.487Z,11.83
2023-06-04T07:30:39.074Z,11.95
2023-06-04T07:34:01.825Z,11.93
2023-06-04T07:37:24.692Z,12.00
2023-06-04T07:40:49.216Z,11.95
2023-06-04T07:44:12.143Z,11.94
2023-06-04T07:47:36.352Z,11.91
2023-06-04T07:51:00.013Z,11.93
2023-06-04T07:54:24.177Z,11.97
2023-06-04T07:57:47.370Z,11.83
2023-06-04T08:01:10.719Z,11.75
2023-06-04T08:04:35.235Z,11.72
2023-06-04T08:07:58.143Z,11.64
2023-06-04T08:11:20.932Z,11.54
2023-06-04T08:14:44.416Z,11.49
2023-06-04T08:18:08.349Z,11.41
2023-06-04T08:21:33.184Z,11.46
2023-06-04T08:24:57.181Z,11.52
2023-06-04T08:28:22.792Z,11.66
2023-06-04T08:31:45.597Z,11.72
2023-06-04T08:35:10.105Z,11.69
2023-06-04T08:38:34.550Z,11.55
2023-06-04T08:42:03.387Z,11.48
2023-06-04T08:45:27.011Z,11.45
2023-06-04T08:48:51.086Z,11.43
2023-06-04T08:52:14.575Z,11.46
2023-06-04T08:55:39.052Z,11.48
2023-06-04T08:59:04.452Z,11.61
2023-06-04T09:02:31.134Z,11.61
2023-06-04T09:05:55.307Z,11.56
2023-06-04T09:09:19.719Z,11.61
2023-06-04T09:12:46.442Z,11.76
2023-06-04T09:16:09.474Z,12.01
2023-06-04T09:19:32.548Z,12.28
2023-06-04T09:22:55.320Z,12.47
2023-06-04T09:26:18.283Z,12.72
2023-06-04T09:29:42.868Z,12.96
2023-06-04T09:33:10.434Z,13.31
2023-06-04T09:36:33.950Z,13.58
2023-06-04T09:39:57.908Z,13.60
2023-06-04T09:43:27.202Z,13.54
2023-06-04T09:46:58.205Z,13.57
2023-06-04T09:50:29.501Z,13.54
2023-06-04T09:54:00.082Z,13.62
2023-06-04T09:57:24.121Z,13.85
2023-06-04T10:00:48.516Z,14.03
2023-06-04T10:04:16.286Z,14.35
2023-06-04T10:07:41.706Z,14.78
2023-06-04T10:11:07.408Z,15.09
2023-06-04T10:14:38.165Z,15.09
2023-06-04T10:18:01.244Z,14.81
2023-06-04T10:21:26.436Z,14.94
2023-06-04T10:24:49.091Z,14.92
2023-06-04T10:28:11.947Z,14.90
2023-06-04T10:31:35.310Z,15.25
2023-06-04T10:34:58.994Z,15.69
2023-06-04T10:38:23.814Z,16.02
2023-06-04T10:41:47.264Z,16.11
2023-06-04T10:45:13.504Z,16.12
2023-06-04T10:48:35.946Z,15.96
2023-06-04T10:52:04.627Z,16.00
2023-06-04T10:55:28.736Z,15.75
2023-06-04T10:58:51.695Z,15.68
2023-06-04T11:02:14.746Z,15.63
2023-06-04T11:05:38.929Z,15.88
2023-06-04T11:09:06.877Z,16.17
2023-06-04T11:12:30.696Z,16.16
2023-06-04T11:15:53.249Z,15.87
2023-06-04T11:19:15.778Z,15.90
2023-06-04T11:22:38.429Z,15.78
2023-06-04T11:26:01.288Z,15.64
2023-06-04T11:29:25.885Z,15.34
2023-06-04T11:32:49.487Z,15.16
2023-06-04T11:36:11.933Z,15.09
2023-06-04T11:39:40.396Z,15.12
2023-06-04T11:43:03.245Z,15.44
2023-06-04T11:46:27.745Z,15.41
2023-06-04T11:49:50.907Z,15.79
2023-06-04T11:53:13.764Z,15.63
2023-06-04T11:56:36.723Z,15.39
2023-06-04T11:59:59.788Z,15.56
2023-06-04T12:03:36.784Z,15.59
2023-06-04T12:07:01.782Z,15.42
2023-06-04T12:10:25.766Z,15.29
2023-06-04T12:13:48.821Z,15.42
2023-06-04T12:17:12.265Z,15.44
2023-06-04T12:20:41.699Z,15.34
2023-06-04T12:24:12.847Z,15.51
2023-06-04T12:27:36.220Z,15.55
2023-06-04T12:30:59.218Z,15.65
2023-06-04T12:34:22.107Z,15.63
2023-06-04T12:37:46.629Z,15.49
2023-06-04T12:41:09.795Z,15.40
2023-06-04T12:44:34.716Z,15.54
2023-06-04T12:47:59.043Z,15.56
2023-06-04T12:51:22.248Z,15.61
2023-06-04T12:54:47.278Z,15.61
2023-06-04T12:58:10.096Z,15.55
2023-06-04T13:01:33.255Z,15.50
2023-06-04T13:04:57.567Z,15.62
2023-06-04T13:08:20.649Z,15.78
2023-06-04T13:11:46.242Z,15.72
2023-06-04T13:15:10.245Z,15.51
2023-06-04T13:18:33.401Z,15.39
2023-06-04T13:21:56.154Z,15.19
2023-06-04T13:25:19.518Z,15.00
2023-06-04T13:28:44.011Z,15.06
2023-06-04T13:32:07.387Z,15.03
2023-06-04T13:35:30.442Z,15.11
2023-06-04T13:38:56.268Z,15.21
2023-06-04T13:42:19.022Z,15.24
2023-06-04T13:45:46.085Z,15.23
2023-06-04T13:49:08.931Z,15.16
2023-06-04T13:52:31.380Z,15.17
2023-06-04T13:55:59.522Z,15.18
2023-06-04T13:59:22.254Z,15.21
2023-06-04T14:02:46.563Z,15.26
2023-06-04T14:06:11.356Z,15.28
2023-06-04T14:09:37.539Z,15.30
2023-06-04T14:13:00.301Z,15.19
2023-06-04T14:16:23.171Z,15.10
2023-06-04T14:19:47.235Z,14.92
2023-06-04T14:23:10.246Z,14.80
2023-06-04T14:26:33.158Z,14.69
2023-06-04T14:29:56.382Z,14.62
2023-06-04T14:33:19.079Z,14.62
2023-06-04T14:36:43.871Z,14.69
2023-06-04T14:40:07.754Z,14.77
2023-06-04T14:43:30.610Z,14.73
2023-06-04T14:46:54.458Z,14.70
2023-06-04T14:50:17.245Z,14.57
2023-06-04T14:53:41.847Z,14.63
2023-06-04T14:57:05.001Z,14.51
2023-06-04T15:00:27.858Z,14.48
2023-06-04T15:03:50.774Z,14.50
2023-06-04T15:07:13.268Z,14.33
2023-06-04T15:10:37.651Z,14.34
2023-06-04T15:14:00.309Z,14.39
2023-06-04T15:17:23.785Z,14.38
2023-06-04T15:20:46.834Z,14.32
2023-06-04T15:24:10.954Z,14.38
2023-06-04T15:27:35.535Z,14.33
2023-06-04T15:30:58.583Z,14.37
2023-06-04T15:34:21.535Z,14.38
2023-06-04T15:37:44.496Z,14.37
2023-06-04T15:41:07.320Z,14.26
2023-06-04T15:44:32.257Z,14.05
2023-06-04T15:47:55.530Z,13.94
2023-06-04T15:51:18.277Z,13.91
2023-06-04T15:54:46.327Z,13.94
2023-06-04T15:58:10.139Z,13.72
2023-06-04T16:01:34.682Z,13.84
2023-06-04T16:04:58.404Z,13.86
2023-06-04T16:08:21.774Z,13.88
2023-06-04T16:11:44.528Z,13.82
2023-06-04T16:15:08.646Z,14.05
2023-06-04T16:18:33.648Z,14.86
2023-06-04T16:21:56.584Z,15.63
2023-06-04T16:25:19.856Z,16.02
2023-06-04T16:28:44.652Z,16.31
2023-06-04T16:32:07.912Z,16.47
2023-06-04T16:35:33.428Z,15.88
2023-06-04T16:38:56.392Z,15.37
2023-06-04T16:42:19.246Z,15.01
2023-06-04T16:45:42.817Z,14.79
2023-06-04T16:49:05.654Z,14.69
2023-06-04T16:52:30.168Z,14.51
2023-06-04T16:55:52.819Z,14.40
2023-06-04T16:59:15.479Z,14.24
2023-06-04T17:02:38.491Z,14.10
2023-06-04T17:06:01.596Z,13.94
2023-06-04T17:09:25.669Z,13.80
2023-06-04T17:12:48.752Z,13.79
2023-06-04T17:16:11.829Z,13.90
2023-06-04T17:19:34.670Z,14.30
2023-06-04T17:22:57.672Z,14.62
2023-06-04T17:26:23.639Z,14.28
2023-06-04T17:29:46.910Z,13.98
2023-06-04T17:33:11.574Z,13.91
2023-06-04T17:36:34.569Z,14.04
2023-06-04T17:39:57.348Z,13.80
2023-06-04T17:43:21.612Z,13.69
2023-06-04T17:46:44.603Z,13.50
2023-06-04T17:50:09.882Z,13.21
2023-06-04T17:53:32.744Z,13.10
2023-06-04T17:56:56.103Z,13.07
2023-06-04T18:00:21.724Z,12.93
2023-06-04T18:03:44.841Z,12.84
2023-06-04T18:07:07.647Z,12.71
2023-06-04T18:10:30.500Z,12.66
2023-06-04T18:13:53.262Z,12.57
2023-06-04T18:17:17.849Z,12.47
2023-06-04T18:20:42.554Z,12.34
2023-06-04T18:24:05.851Z,12.22
2023-06-04T18:27:29.087Z,12.03
2023-06-04T18:30:52.146Z,11.96
2023-06-04T18:34:21.789Z,11.81
2023-06-04T18:37:45.124Z,11.78
2023-06-04T18:41:10.751Z,11.67
2023-06-04T18:44:33.621Z,11.54
2023-06-04T18:47:56.551Z,11.39
2023-06-04T18:51:20.657Z,11.30
2023-06-04T18:54:46.286Z,11.24
2023-06-04T18:58:10.459Z,11.18
2023-06-04T19:01:33.683Z,11.06
2023-06-04T19:04:56.782Z,11.02
2023-06-04T19:08:21.688Z,10.88
2023-06-04T19:11:45.272Z,10.88
2023-06-04T19:15:09.764Z,10.67
2023-06-04T19:18:33.429Z,10.73
2023-06-04T19:21:56.298Z,10.62
2023-06-04T19:25:20.920Z,10.59
2023-06-04T19:28:43.941Z,10.57
2023-06-04T19:32:07.833Z,10.46
2023-06-04T19:35:30.683Z,10.41
2023-06-04T19:38:53.642Z,10.34
2023-06-04T19:43:27.274Z,10.30
2023-06-04T19:46:51.881Z,10.27
2023-06-04T19:50:15.830Z,10.21
2023-06-04T19:53:39.507Z,10.13
2023-06-04T19:57:02.665Z,10.09
2023-06-04T20:00:26.149Z,10.06
2023-06-04T20:03:50.752Z,9.95
2023-06-04T20:07:14.421Z,9.97
2023-06-04T20:10:37.267Z,9.94
2023-06-04T20:14:00.241Z,9.94
2023-06-04T20:17:23.626Z,9.71
2023-06-04T20:20:53.731Z,9.73
2023-06-04T20:24:18.108Z,9.73
2023-06-04T20:27:42.814Z,9.72
2023-06-04T20:31:05.807Z,9.69
2023-06-04T20:34:28.936Z,9.64
2023-06-04T20:37:55.475Z,9.59
2023-06-04T20:41:18.240Z,9.46
2023-06-04T20:44:41.700Z,9.41
2023-06-04T20:48:04.657Z,9.36
2023-06-04T20:51:27.578Z,9.24
2023-06-04T20:54:51.810Z,9.24
2023-06-04T20:58:15.588Z,9.29
2023-06-04T21:01:38.316Z,9.14
2023-06-04T21:05:01.516Z,9.17
2023-06-04T21:08:26.524Z,9.11
2023-06-04T21:11:50.705Z,8.98
2023-06-04T21:15:13.696Z,8.98
2023-06-04T21:18:36.618Z,8.93
2023-06-04T21:21:59.272Z,8.85
2023-06-04T21:25:22.230Z,8.79
2023-06-04T21:28:46.433Z,8.74
2023-06-04T21:32:09.622Z,8.67
2023-06-04T21:35:32.539Z,8.62
2023-06-04T21:38:55.190Z,8.56
2023-06-04T21:42:17.842Z,8.47
2023-06-04T21:45:42.635Z,8.45
2023-06-04T21:49:05.398Z,8.40
2023-06-04T21:52:28.267Z,8.22
2023-06-04T21:55:50.900Z,8.28
2023-06-04T21:59:13.859Z,8.22
2023-06-04T22:02:38.226Z,8.05
2023-06-04T22:06:00.902Z,8.02
2023-06-04T22:09:23.857Z,8.00
2023-06-04T22:12:46.920Z,8.00
2023-06-04T22:16:09.921Z,7.91
2023-06-04T22:19:34.500Z,7.86
2023-06-04T22:22:57.344Z,7.75
2023-06-04T22:29:45.829Z,7.69
2023-06-04T22:33:08.304Z,7.67
2023-06-04T22:36:32.351Z,7.59
2023-06-04T22:39:55.707Z,7.38
2023-06-04T22:43:18.368Z,7.46
2023-06-04T22:46:41.053Z,7.39
2023-06-04T22:50:03.676Z,7.38
2023-06-04T22:53:28.467Z,7.34
2023-06-04T22:56:51.015Z,7.27
2023-06-04T23:00:15.113Z,7.27
2023-06-04T23:03:37.753Z,7.20
2023-06-04T23:07:00.708Z,7.14
2023-06-04T23:10:25.209Z,7.09
2023-06-04T23:13:48.376Z,7.03
2023-06-04T23:17:11.235Z,6.97
2023-06-04T23:20:34.403Z,6.91
2023-06-04T23:23:57.307Z,6.79
2023-06-04T23:27:21.325Z,6.87
2023-06-04T23:30:43.678Z,6.82
2023-06-04T23:34:06.685Z,6.70
2023-06-04T23:37:29.821Z,6.65
2023-06-04T23:40:52.652Z,6.46
2023-06-04T23:44:18.364Z,6.58
2023-06-04T23:47:41.367Z,6.45
2023-06-04T23:51:04.493Z,6.54
2023-06-04T23:54:27.774Z,6.47
2023-06-04T23:57:50.614Z,6.45
